4XCHA LLHZ-LLHZ

Flight info

Callsign 4XCHA
Flight time 0h 2m
Altitude 2500
Route TRAINING AREA
Aircraft C172/L-SD/C

Departure

Time 2026-04-26 15:04
Airport Herzliya Airport (LLHZ)

Arrival

Time 2026-04-26 15:06
Airport Herzliya Airport (LLHZ)
Time Latitude Longitude Altitude Speed Heading
2026-04-26 14:57 32.18058 34.83181 95 ft 0 kts 20°
2026-04-26 15:00 32.18062 34.83184 65 ft 5 kts 33°
2026-04-26 15:00 32.18045 34.83284 109 ft 21 kts 109°
2026-04-26 15:01 32.17991 34.83470 114 ft 25 kts 108°
2026-04-26 15:01 32.17939 34.83644 119 ft 20 kts 110°
2026-04-26 15:01 32.17902 34.83771 126 ft 13 kts 110°
2026-04-26 15:01 32.17882 34.83839 126 ft 0 kts 104°
2026-04-26 15:03 32.17902 34.83867 131 ft 9 kts 356°
2026-04-26 15:03 32.17943 34.83755 127 ft 37 kts 289°
2026-04-26 15:04 32.18081 34.83299 168 ft 71 kts 284°
2026-04-26 15:04 32.18286 34.82794 445 ft 70 kts 321°
2026-04-26 15:04 32.18807 34.82742 602 ft 83 kts 12°
2026-04-26 15:04 32.19328 34.83066 738 ft 101 kts 55°
2026-04-26 15:05 32.19327 34.83903 795 ft 109 kts 109°
2026-04-26 15:05 32.19246 34.84194 798 ft 111 kts 112°
2026-04-26 15:05 32.18756 34.85423 808 ft 79 kts 169°
2026-04-26 15:05 32.18257 34.85314 634 ft 74 kts 201°
2026-04-26 15:06 32.17769 34.85150 440 ft 70 kts 221°
2026-04-26 15:06 32.17676 34.84692 333 ft 56 kts 281°
2026-04-26 15:06 32.17802 34.84232 256 ft 66 kts 285°
2026-04-26 15:06 32.17940 34.83773 126 ft 46 kts 288°
2026-04-26 15:07 32.18200 34.82945 275 ft 69 kts 292°
2026-04-26 15:07 32.18619 34.82704 472 ft 79 kts
2026-04-26 15:07 32.19141 34.82934 684 ft 84 kts 18°
2026-04-26 15:08 32.19506 34.83452 806 ft 96 kts 102°
2026-04-26 15:08 32.19248 34.84217 829 ft 110 kts 116°
2026-04-26 15:08 32.18893 34.84950 936 ft 79 kts 182°
2026-04-26 15:08 32.18485 34.84683 767 ft 70 kts 218°
2026-04-26 15:09 32.18017 34.84466 559 ft 69 kts 215°
2026-04-26 15:09 32.17872 34.84017 213 ft 63 kts 279°
2026-04-26 15:09 32.17988 34.83613 117 ft 38 kts 288°
2026-04-26 15:09 32.18091 34.83255 109 ft 66 kts 286°
2026-04-26 15:10 32.18287 34.82774 338 ft 68 kts 319°
2026-04-26 15:10 32.18584 34.82652 480 ft 71 kts 352°
2026-04-26 15:10 32.19302 34.82847 724 ft 83 kts 20°
2026-04-26 15:10 32.19530 34.83492 816 ft 100 kts 101°
2026-04-26 15:11 32.19307 34.84326 821 ft 112 kts 113°
2026-04-26 15:11 32.19040 34.85133 826 ft 97 kts 118°
2026-04-26 15:11 32.18575 34.85410 754 ft 78 kts 196°
2026-04-26 15:11 32.18083 34.85305 611 ft 74 kts 199°
2026-04-26 15:12 32.17657 34.85067 459 ft 62 kts 251°
2026-04-26 15:12 32.17700 34.84583 328 ft 59 kts 285°
2026-04-26 15:12 32.17842 34.84093 209 ft 63 kts 285°
2026-04-26 15:12 32.17966 34.83684 121 ft 40 kts 289°
2026-04-26 15:13 32.18080 34.83291 147 ft 63 kts 286°
2026-04-26 15:13 32.18294 34.82865 344 ft 72 kts 322°
2026-04-26 15:13 32.18795 34.82732 582 ft 75 kts 354°
2026-04-26 15:13 32.19337 34.82904 731 ft 91 kts 30°
2026-04-26 15:14 32.19781 34.83474 828 ft 100 kts 49°
2026-04-26 15:14 32.20208 34.84157 837 ft 108 kts 54°
2026-04-26 15:14 32.20472 34.84665 827 ft 111 kts 59°
2026-04-26 15:14 32.20830 34.85493 776 ft 115 kts 66°
2026-04-26 15:15 32.21159 34.86359 773 ft 115 kts 65°
2026-04-26 15:15 32.21488 34.87203 805 ft 112 kts 68°
2026-04-26 15:15 32.21826 34.88029 826 ft 110 kts 46°
2026-04-26 15:15 32.22492 34.88271 846 ft 102 kts 335°
2026-04-26 15:16 32.23135 34.87909 855 ft 105 kts 331°
2026-04-26 15:16 32.23803 34.87527 852 ft 103 kts 330°
2026-04-26 15:16 32.24433 34.87131 798 ft 105 kts 328°
2026-04-26 15:16 32.25053 34.86774 1064 ft 86 kts 333°
2026-04-26 15:17 32.25565 34.86517 1359 ft 78 kts 330°
2026-04-26 15:17 32.25908 34.86350 1496 ft 78 kts 335°
2026-04-26 15:17 32.26613 34.86172 1767 ft 81 kts 351°
2026-04-26 15:17 32.27191 34.86159 1986 ft 79 kts 352°
2026-04-26 15:18 32.27755 34.86088 2146 ft 85 kts 355°
2026-04-26 15:18 32.28359 34.86114 2257 ft 97 kts 359°
2026-04-26 15:18 32.29031 34.86204 2297 ft 86 kts
2026-04-26 15:18 32.29552 34.86381 2284 ft 77 kts 14°
2026-04-26 15:19 32.30018 34.86702 2237 ft 78 kts 20°
2026-04-26 15:19 32.30495 34.86648 2184 ft 67 kts 309°
2026-04-26 15:19 32.30578 34.86197 2203 ft 58 kts 248°
2026-04-26 15:19 32.30213 34.85985 2195 ft 64 kts 189°
2026-04-26 15:20 32.29779 34.85982 2196 ft 65 kts 189°
2026-04-26 15:20 32.29235 34.85914 2180 ft 88 kts 197°
2026-04-26 15:20 32.28685 34.85751 2292 ft 85 kts 200°
2026-04-26 15:20 32.28070 34.85731 2341 ft 89 kts 202°
2026-04-26 15:21 32.27416 34.85621 2287 ft 102 kts 191°
2026-04-26 15:21 32.26885 34.85546 2456 ft 37 kts 210°
2026-04-26 15:21 32.26381 34.85252 2053 ft 90 kts 205°
2026-04-26 15:21 32.25902 34.85113 2044 ft 69 kts 200°
2026-04-26 15:22 32.25420 34.84965 1808 ft 75 kts 204°
2026-04-26 15:22 32.25037 34.84639 1639 ft 67 kts 210°
2026-04-26 15:22 32.24582 34.84471 1425 ft 69 kts 204°
2026-04-26 15:22 32.24122 34.84285 1217 ft 72 kts 204°
2026-04-26 15:23 32.23641 34.84149 1023 ft 73 kts 189°
2026-04-26 15:23 32.23191 34.84437 726 ft 92 kts 110°
2026-04-26 15:23 32.23628 34.84849 566 ft 84 kts 13°
2026-04-26 15:23 32.24155 34.85081 814 ft 80 kts 19°
2026-04-26 15:24 32.24632 34.85452 1057 ft 75 kts 15°
2026-04-26 15:24 32.25191 34.85656 1205 ft 87 kts
2026-04-26 15:24 32.25812 34.85776 1333 ft 91 kts 330°
2026-04-26 15:24 32.25677 34.85572 1307 ft 100 kts 106°
2026-04-26 15:25 32.26122 34.85763 1340 ft 93 kts 279°
2026-04-26 15:25 32.25859 34.85689 1437 ft 102 kts 100°
2026-04-26 15:25 32.25898 34.85732 1363 ft 108 kts 106°
2026-04-26 15:25 32.26135 34.85675 1297 ft 104 kts 200°
2026-04-26 15:26 32.26163 34.86276 1323 ft 105 kts 37°
2026-04-26 15:26 32.26242 34.86957 1307 ft 99 kts 160°
2026-04-26 15:26 32.25929 34.86584 1304 ft 87 kts 302°
2026-04-26 15:26 32.26481 34.86379 1260 ft 84 kts 353°
2026-04-26 15:27 32.27099 34.86410 1258 ft 95 kts
2026-04-26 15:27 32.27786 34.86560 1221 ft 102 kts
2026-04-26 15:27 32.28488 34.86687 1208 ft 100 kts
2026-04-26 15:27 32.29189 34.86803 1181 ft 104 kts
2026-04-26 15:28 32.29785 34.86951 1566 ft 81 kts
2026-04-26 15:28 32.30352 34.87084 1677 ft 92 kts
2026-04-26 15:28 32.30487 34.87649 1670 ft 96 kts 167°
2026-04-26 15:28 32.29831 34.87608 1713 ft 96 kts 194°
2026-04-26 15:29 32.29161 34.87463 1683 ft 100 kts 198°
2026-04-26 15:29 32.28495 34.87287 1670 ft 98 kts 200°
2026-04-26 15:29 32.27182 34.86832 1630 ft 98 kts 205°
2026-04-26 15:30 32.25995 34.86876 1543 ft 114 kts 92°
2026-04-26 15:30 32.26426 34.87618 1489 ft 111 kts 24°
2026-04-26 15:30 32.27170 34.87681 1408 ft 106 kts 337°
2026-04-26 15:31 32.27415 34.87023 1568 ft 84 kts 268°
2026-04-26 15:31 32.27432 34.85809 1562 ft 107 kts 184°
2026-04-26 15:31 32.26830 34.86295 1681 ft 107 kts 147°
2026-04-26 15:32 32.25887 34.85716 1591 ft 108 kts 237°
2026-04-26 15:32 32.25330 34.84876 1757 ft 94 kts 211°
2026-04-26 15:32 32.24815 34.85252 1417 ft 116 kts 117°
2026-04-26 15:33 32.24583 34.86118 1363 ft 96 kts 110°
2026-04-26 15:33 32.24132 34.86324 1194 ft 76 kts 228°
2026-04-26 15:33 32.24109 34.85709 1152 ft 86 kts 290°
2026-04-26 15:33 32.24351 34.85046 1173 ft 91 kts 293°
2026-04-26 15:34 32.24687 34.84376 1170 ft 94 kts 314°
2026-04-26 15:34 32.25303 34.84349 1193 ft 110 kts 49°
2026-04-26 15:34 32.25051 34.85086 1148 ft 110 kts 149°
2026-04-26 15:34 32.24468 34.85652 1186 ft 108 kts 142°
2026-04-26 15:35 32.23903 34.86256 1215 ft 111 kts 142°
2026-04-26 15:35 32.23359 34.86904 1230 ft 114 kts 139°
2026-04-26 15:35 32.22789 34.87530 1241 ft 108 kts 144°
2026-04-26 15:35 32.22226 34.88105 1236 ft 102 kts 156°
2026-04-26 15:36 32.21617 34.88020 1160 ft 94 kts 226°
2026-04-26 15:36 32.21170 34.87480 1137 ft 85 kts 233°
2026-04-26 15:36 32.20823 34.86989 1101 ft 75 kts 237°
2026-04-26 15:36 32.20545 34.86487 1219 ft 70 kts 244°
2026-04-26 15:37 32.20235 34.85964 1185 ft 81 kts 223°
2026-04-26 15:37 32.19719 34.85707 1163 ft 86 kts 198°
2026-04-26 15:37 32.19135 34.85579 1134 ft 85 kts 198°
2026-04-26 15:37 32.18578 34.85418 1154 ft 76 kts 201°
2026-04-26 15:38 32.18016 34.85241 803 ft 79 kts 199°
2026-04-26 15:38 32.17646 34.84880 434 ft 73 kts 270°
2026-04-26 15:38 32.17781 34.84344 266 ft 64 kts 286°
2026-04-26 15:38 32.17909 34.83871 132 ft 55 kts 288°
2026-04-26 15:39 32.17999 34.83564 112 ft 22 kts 290°
2026-04-26 15:39 32.18049 34.83396 106 ft 21 kts 291°
2026-04-26 15:39 32.18031 34.83335 107 ft 10 kts 133°
2026-04-26 15:39 32.18024 34.83356 107 ft 0 kts 108°
2026-04-26 15:40 32.18023 34.83361 107 ft 2 kts 109°
2026-04-26 15:41 32.18020 34.83369 108 ft 0 kts 111°
2026-04-26 15:41 32.18020 34.83371 108 ft 3 kts 110°
2026-04-26 15:41 32.18000 34.83438 109 ft 11 kts 109°
2026-04-26 15:42 32.17969 34.83512 111 ft 9 kts 124°
2026-04-26 15:42 32.17966 34.83521 111 ft 0 kts 110°